sensor_id;sensor_type;location;lat;lon;timestamp;pressure;altitude;pressure_sealevel;temperature;humidity
60976;BME280;46849;48.154;17.042;2023-01-30T00:00:11;99277.00;;;-2.78;94.61
60976;BME280;46849;48.154;17.042;2023-01-30T00:03:16;99280.50;;;-2.98;93.52
60976;BME280;46849;48.154;17.042;2023-01-30T00:06:01;99268.50;;;-2.88;94.56
60976;BME280;46849;48.154;17.042;2023-01-30T00:08:46;99276.16;;;-2.80;93.94
60976;BME280;46849;48.154;17.042;2023-01-30T00:11:30;99270.19;;;-2.82;93.90
60976;BME280;46849;48.154;17.042;2023-01-30T00:14:16;99265.81;;;-2.66;94.05
60976;BME280;46849;48.154;17.042;2023-01-30T00:17:01;99264.06;;;-2.63;92.99
60976;BME280;46849;48.154;17.042;2023-01-30T00:19:46;99255.47;;;-2.54;93.17
60976;BME280;46849;48.154;17.042;2023-01-30T00:22:30;99244.50;;;-2.78;92.34
60976;BME280;46849;48.154;17.042;2023-01-30T00:25:15;99246.22;;;-2.78;93.25
60976;BME280;46849;48.154;17.042;2023-01-30T00:28:00;99237.63;;;-2.74;94.17
60976;BME280;46849;48.154;17.042;2023-01-30T00:30:48;99234.28;;;-2.86;94.52
60976;BME280;46849;48.154;17.042;2023-01-30T00:33:35;99228.31;;;-2.86;93.88
60976;BME280;46849;48.154;17.042;2023-01-30T00:36:20;99230.03;;;-2.90;95.49
60976;BME280;46849;48.154;17.042;2023-01-30T00:39:05;99223.16;;;-2.81;94.58
60976;BME280;46849;48.154;17.042;2023-01-30T00:41:50;99231.63;;;-2.70;94.84
60976;BME280;46849;48.154;17.042;2023-01-30T00:44:53;99222.25;;;-2.77;94.83
60976;BME280;46849;48.154;17.042;2023-01-30T00:47:58;99215.38;;;-2.72;95.11
60976;BME280;46849;48.154;17.042;2023-01-30T00:50:43;99209.31;;;-2.58;95.13
60976;BME280;46849;48.154;17.042;2023-01-30T00:53:30;99213.66;;;-2.70;93.90
60976;BME280;46849;48.154;17.042;2023-01-30T00:56:14;99206.13;;;-2.95;94.00
60976;BME280;46849;48.154;17.042;2023-01-30T00:58:59;99204.28;;;-2.74;94.34
60976;BME280;46849;48.154;17.042;2023-01-30T01:01:44;99197.50;;;-2.83;93.08
60976;BME280;46849;48.154;17.042;2023-01-30T01:04:30;99190.72;;;-2.93;93.08
60976;BME280;46849;48.154;17.042;2023-01-30T01:07:14;99193.25;;;-2.84;92.00
60976;BME280;46849;48.154;17.042;2023-01-30T01:09:59;99185.56;;;-2.84;92.49
60976;BME280;46849;48.154;17.042;2023-01-30T01:12:44;99184.59;;;-2.70;93.24
60976;BME280;46849;48.154;17.042;2023-01-30T01:15:29;99182.91;;;-2.73;91.94
60976;BME280;46849;48.154;17.042;2023-01-30T01:18:14;99181.22;;;-2.79;91.39
60976;BME280;46849;48.154;17.042;2023-01-30T01:21:00;99174.44;;;-2.85;93.87
60976;BME280;46849;48.154;17.042;2023-01-30T01:23:52;99171.88;;;-2.85;92.83
60976;BME280;46849;48.154;17.042;2023-01-30T01:26:38;99162.47;;;-2.89;92.88
60976;BME280;46849;48.154;17.042;2023-01-30T01:29:22;99154.84;;;-2.97;92.21
60976;BME280;46849;48.154;17.042;2023-01-30T01:32:08;99153.06;;;-2.85;94.19
60976;BME280;46849;48.154;17.042;2023-01-30T01:34:52;99147.91;;;-2.82;93.02
60976;BME280;46849;48.154;17.042;2023-01-30T01:37:37;99153.94;;;-2.88;93.61
60976;BME280;46849;48.154;17.042;2023-01-30T01:40:22;99145.38;;;-2.85;93.55
60976;BME280;46849;48.154;17.042;2023-01-30T01:43:25;99153.09;;;-2.91;92.01
60976;BME280;46849;48.154;17.042;2023-01-30T01:46:17;99144.63;;;-3.00;93.22
60976;BME280;46849;48.154;17.042;2023-01-30T01:49:11;99142.06;;;-3.01;93.92
60976;BME280;46849;48.154;17.042;2023-01-30T01:52:07;99135.97;;;-2.86;94.66
60976;BME280;46849;48.154;17.042;2023-01-30T01:54:58;99129.84;;;-2.66;95.54
60976;BME280;46849;48.154;17.042;2023-01-30T01:58:09;99135.13;;;-2.88;95.47
60976;BME280;46849;48.154;17.042;2023-01-30T02:00:54;99141.09;;;-2.86;96.48
60976;BME280;46849;48.154;17.042;2023-01-30T02:03:44;99137.66;;;-2.82;96.24
60976;BME280;46849;48.154;17.042;2023-01-30T02:06:34;99132.69;;;-3.02;96.45
60976;BME280;46849;48.154;17.042;2023-01-30T02:09:20;99123.28;;;-3.05;97.65
60976;BME280;46849;48.154;17.042;2023-01-30T02:12:05;99116.38;;;-2.97;97.74
60976;BME280;46849;48.154;17.042;2023-01-30T02:14:50;99118.81;;;-2.76;96.75
60976;BME280;46849;48.154;17.042;2023-01-30T02:17:37;99114.47;;;-2.74;96.46
60976;BME280;46849;48.154;17.042;2023-01-30T02:29:38;99097.63;;;-3.03;94.64
60976;BME280;46849;48.154;17.042;2023-01-30T02:38:40;99077.34;;;-3.31;94.25
60976;BME280;46849;48.154;17.042;2023-01-30T02:41:40;99083.28;;;-3.28;94.93
60976;BME280;46849;48.154;17.042;2023-01-30T02:48:11;99087.47;;;-3.17;94.49
60976;BME280;46849;48.154;17.042;2023-01-30T02:51:18;99082.50;;;-3.39;93.86
60976;BME280;46849;48.154;17.042;2023-01-30T02:54:06;99078.97;;;-3.23;94.78
60976;BME280;46849;48.154;17.042;2023-01-30T02:56:55;99069.63;;;-3.28;94.64
60976;BME280;46849;48.154;17.042;2023-01-30T02:59:44;99076.47;;;-3.30;94.43
60976;BME280;46849;48.154;17.042;2023-01-30T03:05:52;99063.53;;;-3.15;94.77
60976;BME280;46849;48.154;17.042;2023-01-30T03:12:12;99042.75;;;-2.83;93.85
60976;BME280;46849;48.154;17.042;2023-01-30T03:15:36;99042.94;;;-3.02;92.30
60976;BME280;46849;48.154;17.042;2023-01-30T03:18:24;99037.00;;;-3.07;94.02
60976;BME280;46849;48.154;17.042;2023-01-30T03:21:10;99029.38;;;-3.15;93.64
60976;BME280;46849;48.154;17.042;2023-01-30T03:23:55;99029.25;;;-3.04;93.63
60976;BME280;46849;48.154;17.042;2023-01-30T03:26:45;99021.53;;;-3.01;93.28
60976;BME280;46849;48.154;17.042;2023-01-30T03:29:32;99025.09;;;-3.16;93.15
60976;BME280;46849;48.154;17.042;2023-01-30T03:32:17;99026.72;;;-3.07;93.03
60976;BME280;46849;48.154;17.042;2023-01-30T03:35:01;99012.25;;;-3.16;93.36
60976;BME280;46849;48.154;17.042;2023-01-30T03:37:47;99007.25;;;-3.27;93.26
60976;BME280;46849;48.154;17.042;2023-01-30T03:40:31;99000.47;;;-3.33;93.50
60976;BME280;46849;48.154;17.042;2023-01-30T03:43:16;99000.47;;;-3.38;93.69
60976;BME280;46849;48.154;17.042;2023-01-30T03:46:01;99002.19;;;-3.35;94.25
60976;BME280;46849;48.154;17.042;2023-01-30T03:48:46;99008.97;;;-3.32;93.81
60976;BME280;46849;48.154;17.042;2023-01-30T03:51:31;98999.63;;;-3.38;93.70
60976;BME280;46849;48.154;17.042;2023-01-30T03:54:16;99008.16;;;-3.38;93.83
60976;BME280;46849;48.154;17.042;2023-01-30T03:57:01;99001.38;;;-3.42;95.02
60976;BME280;46849;48.154;17.042;2023-01-30T03:59:46;98991.13;;;-3.42;94.15
60976;BME280;46849;48.154;17.042;2023-01-30T04:02:34;98998.84;;;-3.48;93.67
60976;BME280;46849;48.154;17.042;2023-01-30T04:05:18;98998.06;;;-3.55;94.20
60976;BME280;46849;48.154;17.042;2023-01-30T04:08:10;98984.38;;;-3.54;94.55
60976;BME280;46849;48.154;17.042;2023-01-30T04:10:54;98983.59;;;-3.64;93.92
60976;BME280;46849;48.154;17.042;2023-01-30T04:13:42;98985.25;;;-3.56;95.34
60976;BME280;46849;48.154;17.042;2023-01-30T04:16:29;98987.72;;;-3.44;95.06
60976;BME280;46849;48.154;17.042;2023-01-30T04:19:32;98978.38;;;-3.50;94.76
60976;BME280;46849;48.154;17.042;2023-01-30T04:22:17;98971.53;;;-3.46;94.33
60976;BME280;46849;48.154;17.042;2023-01-30T04:25:02;98969.91;;;-3.58;93.78
60976;BME280;46849;48.154;17.042;2023-01-30T04:27:48;98975.88;;;-3.56;94.41
60976;BME280;46849;48.154;17.042;2023-01-30T04:30:37;98974.84;;;-3.38;94.29
60976;BME280;46849;48.154;17.042;2023-01-30T04:33:41;98971.50;;;-3.43;93.89
60976;BME280;46849;48.154;17.042;2023-01-30T04:36:28;98967.28;;;-3.52;94.34
60976;BME280;46849;48.154;17.042;2023-01-30T04:39:13;98961.28;;;-3.52;94.27
60976;BME280;46849;48.154;17.042;2023-01-30T04:41:58;98966.41;;;-3.46;93.96
60976;BME280;46849;48.154;17.042;2023-01-30T04:44:43;98954.44;;;-3.49;94.52
60976;BME280;46849;48.154;17.042;2023-01-30T04:47:31;98955.31;;;-3.48;94.75
60976;BME280;46849;48.154;17.042;2023-01-30T04:50:16;98950.09;;;-3.39;94.51
60976;BME280;46849;48.154;17.042;2023-01-30T04:53:01;98945.84;;;-3.40;94.28
60976;BME280;46849;48.154;17.042;2023-01-30T04:55:46;98942.47;;;-3.45;94.43
60976;BME280;46849;48.154;17.042;2023-01-30T04:58:31;98933.03;;;-3.41;94.65
60976;BME280;46849;48.154;17.042;2023-01-30T05:01:34;98936.44;;;-3.42;94.52
60976;BME280;46849;48.154;17.042;2023-01-30T05:04:19;98932.88;;;-3.24;94.26
60976;BME280;46849;48.154;17.042;2023-01-30T05:07:03;98929.44;;;-3.18;94.30
60976;BME280;46849;48.154;17.042;2023-01-30T05:09:48;98930.19;;;-3.12;94.26
60976;BME280;46849;48.154;17.042;2023-01-30T05:12:33;98937.16;;;-3.22;93.99
60976;BME280;46849;48.154;17.042;2023-01-30T05:15:17;98947.41;;;-3.26;94.34
60976;BME280;46849;48.154;17.042;2023-01-30T05:18:02;98939.66;;;-3.15;94.97
60976;BME280;46849;48.154;17.042;2023-01-30T05:20:46;98929.31;;;-3.09;94.42
60976;BME280;46849;48.154;17.042;2023-01-30T05:23:31;98912.28;;;-3.15;94.67
60976;BME280;46849;48.154;17.042;2023-01-30T05:26:16;98926.00;;;-3.20;94.76
60976;BME280;46849;48.154;17.042;2023-01-30T05:29:00;98917.53;;;-3.27;95.10
60976;BME280;46849;48.154;17.042;2023-01-30T05:31:46;98915.00;;;-3.32;95.79
60976;BME280;46849;48.154;17.042;2023-01-30T05:34:31;98911.56;;;-3.31;95.61
60976;BME280;46849;48.154;17.042;2023-01-30T05:37:15;98903.63;;;-3.03;100.00
60976;BME280;46849;48.154;17.042;2023-01-30T05:40:00;98899.03;;;-2.08;100.00
60976;BME280;46849;48.154;17.042;2023-01-30T05:42:44;98888.88;;;-2.16;100.00
60976;BME280;46849;48.154;17.042;2023-01-30T05:45:29;98891.03;;;-2.51;100.00
60976;BME280;46849;48.154;17.042;2023-01-30T05:48:14;98886.88;;;-2.61;100.00
60976;BME280;46849;48.154;17.042;2023-01-30T05:50:59;98873.28;;;-2.66;100.00
60976;BME280;46849;48.154;17.042;2023-01-30T05:53:44;98870.34;;;-2.40;100.00
60976;BME280;46849;48.154;17.042;2023-01-30T05:56:28;98870.44;;;-1.86;100.00
60976;BME280;46849;48.154;17.042;2023-01-30T05:59:17;98882.66;;;-1.47;100.00
60976;BME280;46849;48.154;17.042;2023-01-30T06:02:05;98872.06;;;-1.80;100.00
60976;BME280;46849;48.154;17.042;2023-01-30T06:04:51;98877.22;;;-1.82;100.00
60976;BME280;46849;48.154;17.042;2023-01-30T06:07:35;98892.56;;;-1.77;100.00
60976;BME280;46849;48.154;17.042;2023-01-30T06:10:20;98903.13;;;-1.96;100.00
60976;BME280;46849;48.154;17.042;2023-01-30T06:13:04;98896.44;;;-2.06;100.00
60976;BME280;46849;48.154;17.042;2023-01-30T06:15:51;98891.47;;;-2.17;100.00
60976;BME280;46849;48.154;17.042;2023-01-30T06:18:35;98880.28;;;-2.15;100.00
60976;BME280;46849;48.154;17.042;2023-01-30T06:21:20;98870.94;;;-2.19;100.00
60976;BME280;46849;48.154;17.042;2023-01-30T06:24:05;98871.91;;;-2.28;100.00
60976;BME280;46849;48.154;17.042;2023-01-30T06:26:50;98879.75;;;-2.37;100.00
60976;BME280;46849;48.154;17.042;2023-01-30T06:29:34;98882.16;;;-2.26;100.00
60976;BME280;46849;48.154;17.042;2023-01-30T06:32:19;98922.78;;;-1.93;100.00
60976;BME280;46849;48.154;17.042;2023-01-30T06:35:04;98913.28;;;-1.88;100.00
60976;BME280;46849;48.154;17.042;2023-01-30T06:37:49;98888.84;;;-1.59;100.00
60976;BME280;46849;48.154;17.042;2023-01-30T06:40:34;98902.13;;;-1.87;100.00
60976;BME280;46849;48.154;17.042;2023-01-30T06:43:18;98893.72;;;-1.97;100.00
60976;BME280;46849;48.154;17.042;2023-01-30T06:46:03;98875.84;;;-2.03;100.00
60976;BME280;46849;48.154;17.042;2023-01-30T06:48:48;98863.13;;;-2.11;100.00
60976;BME280;46849;48.154;17.042;2023-01-30T06:51:32;98869.78;;;-2.01;100.00
60976;BME280;46849;48.154;17.042;2023-01-30T06:54:17;98887.88;;;-2.07;100.00
60976;BME280;46849;48.154;17.042;2023-01-30T06:57:02;98880.03;;;-1.98;100.00
60976;BME280;46849;48.154;17.042;2023-01-30T06:59:46;98871.41;;;-1.93;100.00
60976;BME280;46849;48.154;17.042;2023-01-30T07:02:31;98865.13;;;-1.75;100.00
60976;BME280;46849;48.154;17.042;2023-01-30T07:05:18;98867.53;;;-1.66;98.77
60976;BME280;46849;48.154;17.042;2023-01-30T07:08:03;98860.78;;;-1.71;99.30
60976;BME280;46849;48.154;17.042;2023-01-30T07:10:48;98856.25;;;-1.55;97.53
60976;BME280;46849;48.154;17.042;2023-01-30T07:13:32;98850.44;;;-1.67;97.25
60976;BME280;46849;48.154;17.042;2023-01-30T07:16:17;98848.75;;;-1.69;96.52
60976;BME280;46849;48.154;17.042;2023-01-30T07:19:02;98844.63;;;-1.78;96.39
60976;BME280;46849;48.154;17.042;2023-01-30T07:21:47;98850.66;;;-1.81;96.43
60976;BME280;46849;48.154;17.042;2023-01-30T07:24:32;98840.22;;;-1.70;97.76
60976;BME280;46849;48.154;17.042;2023-01-30T07:27:17;98840.81;;;-1.55;97.16
60976;BME280;46849;48.154;17.042;2023-01-30T07:30:02;98851.13;;;-1.57;95.19
60976;BME280;46849;48.154;17.042;2023-01-30T07:32:52;98844.25;;;-1.56;93.88
60976;BME280;46849;48.154;17.042;2023-01-30T07:35:38;98858.00;;;-1.59;91.99
60976;BME280;46849;48.154;17.042;2023-01-30T07:38:23;98862.19;;;-1.53;93.58
60976;BME280;46849;48.154;17.042;2023-01-30T07:41:07;98864.06;;;-1.63;91.99
60976;BME280;46849;48.154;17.042;2023-01-30T07:43:53;98852.56;;;-1.42;92.80
60976;BME280;46849;48.154;17.042;2023-01-30T07:46:37;98864.59;;;-1.42;90.63
60976;BME280;46849;48.154;17.042;2023-01-30T07:49:22;98868.75;;;-1.37;90.17
60976;BME280;46849;48.154;17.042;2023-01-30T07:52:07;98862.38;;;-1.15;91.18
60976;BME280;46849;48.154;17.042;2023-01-30T07:54:53;98864.91;;;-1.14;90.34
60976;BME280;46849;48.154;17.042;2023-01-30T07:57:38;98866.50;;;-1.06;89.78
60976;BME280;46849;48.154;17.042;2023-01-30T08:00:24;98851.00;;;-1.03;89.02
60976;BME280;46849;48.154;17.042;2023-01-30T08:03:14;98840.78;;;-1.06;89.99
60976;BME280;46849;48.154;17.042;2023-01-30T08:05:59;98838.03;;;-0.97;87.04
60976;BME280;46849;48.154;17.042;2023-01-30T08:08:44;98832.22;;;-1.07;88.14
60976;BME280;46849;48.154;17.042;2023-01-30T08:11:29;98826.88;;;-0.97;90.42
60976;BME280;46849;48.154;17.042;2023-01-30T08:14:14;98825.13;;;-0.95;88.05
60976;BME280;46849;48.154;17.042;2023-01-30T08:16:59;98823.94;;;-0.79;89.04
60976;BME280;46849;48.154;17.042;2023-01-30T08:19:44;98822.41;;;-0.89;90.20
60976;BME280;46849;48.154;17.042;2023-01-30T08:22:28;98828.06;;;-0.71;89.87
60976;BME280;46849;48.154;17.042;2023-01-30T08:25:13;98815.00;;;-0.62;88.99
60976;BME280;46849;48.154;17.042;2023-01-30T08:27:58;98815.88;;;-0.63;88.79
60976;BME280;46849;48.154;17.042;2023-01-30T08:30:43;98802.94;;;-0.60;88.43
60976;BME280;46849;48.154;17.042;2023-01-30T08:33:28;98797.25;;;-0.35;89.62
60976;BME280;46849;48.154;17.042;2023-01-30T08:36:14;98802.66;;;-0.46;89.51
60976;BME280;46849;48.154;17.042;2023-01-30T08:38:59;98801.66;;;-0.40;88.52
60976;BME280;46849;48.154;17.042;2023-01-30T08:41:44;98789.84;;;-0.49;86.01
60976;BME280;46849;48.154;17.042;2023-01-30T08:44:28;98767.44;;;-0.45;85.45
60976;BME280;46849;48.154;17.042;2023-01-30T08:47:13;98762.56;;;-0.20;85.61
60976;BME280;46849;48.154;17.042;2023-01-30T08:49:58;98755.13;;;0.03;83.50
60976;BME280;46849;48.154;17.042;2023-01-30T08:52:42;98751.41;;;0.15;81.82
60976;BME280;46849;48.154;17.042;2023-01-30T08:55:27;98752.91;;;0.55;80.76
60976;BME280;46849;48.154;17.042;2023-01-30T08:58:12;98761.06;;;0.71;78.52
60976;BME280;46849;48.154;17.042;2023-01-30T09:00:57;98745.47;;;0.76;77.24
60976;BME280;46849;48.154;17.042;2023-01-30T09:03:42;98739.94;;;0.89;76.45
60976;BME280;46849;48.154;17.042;2023-01-30T09:06:27;98737.88;;;1.00;74.70
60976;BME280;46849;48.154;17.042;2023-01-30T09:09:11;98734.34;;;2.13;71.21
60976;BME280;46849;48.154;17.042;2023-01-30T09:11:56;98723.25;;;3.06;65.94
60976;BME280;46849;48.154;17.042;2023-01-30T09:14:41;98734.44;;;3.95;62.51
60976;BME280;46849;48.154;17.042;2023-01-30T09:17:26;98716.53;;;4.11;59.11
60976;BME280;46849;48.154;17.042;2023-01-30T09:20:11;98723.91;;;4.61;60.45
60976;BME280;46849;48.154;17.042;2023-01-30T09:22:57;98720.75;;;5.12;58.29
60976;BME280;46849;48.154;17.042;2023-01-30T09:25:45;98711.84;;;4.79;56.13
60976;BME280;46849;48.154;17.042;2023-01-30T09:28:29;98722.22;;;4.60;59.01
60976;BME280;46849;48.154;17.042;2023-01-30T09:31:14;98720.50;;;4.39;59.24
60976;BME280;46849;48.154;17.042;2023-01-30T09:33:59;98708.22;;;4.03;61.51
60976;BME280;46849;48.154;17.042;2023-01-30T09:36:44;98700.50;;;4.22;60.91
60976;BME280;46849;48.154;17.042;2023-01-30T09:39:28;98690.31;;;3.76;62.67
60976;BME280;46849;48.154;17.042;2023-01-30T09:45:44;98682.66;;;3.93;61.86
60976;BME280;46849;48.154;17.042;2023-01-30T09:55:16;98656.03;;;4.11;60.92
60976;BME280;46849;48.154;17.042;2023-01-30T09:58:05;98654.00;;;3.97;61.00
60976;BME280;46849;48.154;17.042;2023-01-30T10:00:57;98641.13;;;3.74;64.13
60976;BME280;46849;48.154;17.042;2023-01-30T10:04:38;98627.09;;;3.16;63.03
60976;BME280;46849;48.154;17.042;2023-01-30T10:07:14;98623.84;;;3.11;62.79
60976;BME280;46849;48.154;17.042;2023-01-30T10:10:55;98610.13;;;2.86;64.05
60976;BME280;46849;48.154;17.042;2023-01-30T10:13:34;98604.16;;;2.86;66.15
60976;BME280;46849;48.154;17.042;2023-01-30T10:16:54;98599.13;;;2.81;65.75
60976;BME280;46849;48.154;17.042;2023-01-30T10:25:47;98578.78;;;2.49;67.74
60976;BME280;46849;48.154;17.042;2023-01-30T10:34:41;98565.50;;;2.58;65.00
60976;BME280;46849;48.154;17.042;2023-01-30T10:37:31;98562.72;;;2.41;64.03
60976;BME280;46849;48.154;17.042;2023-01-30T10:43:26;98548.47;;;2.53;65.86
60976;BME280;46849;48.154;17.042;2023-01-30T11:01:47;98507.13;;;2.74;65.81
60976;BME280;46849;48.154;17.042;2023-01-30T11:04:42;98471.44;;;2.61;64.72
60976;BME280;46849;48.154;17.042;2023-01-30T11:07:31;98468.00;;;2.61;66.84
60976;BME280;46849;48.154;17.042;2023-01-30T11:10:21;98460.63;;;2.72;66.68
60976;BME280;46849;48.154;17.042;2023-01-30T11:13:15;98464.00;;;2.74;66.13
60976;BME280;46849;48.154;17.042;2023-01-30T11:16:05;98470.63;;;2.59;66.20
60976;BME280;46849;48.154;17.042;2023-01-30T11:18:51;98458.16;;;2.69;68.45
60976;BME280;46849;48.154;17.042;2023-01-30T11:21:36;98447.63;;;2.74;68.96
60976;BME280;46849;48.154;17.042;2023-01-30T11:24:27;98454.16;;;2.82;68.17
60976;BME280;46849;48.154;17.042;2023-01-30T11:27:33;98452.94;;;2.91;69.29
60976;BME280;46849;48.154;17.042;2023-01-30T11:30:19;98455.13;;;3.01;69.12
60976;BME280;46849;48.154;17.042;2023-01-30T11:33:13;98460.50;;;3.17;69.21
60976;BME280;46849;48.154;17.042;2023-01-30T11:36:08;98450.38;;;3.31;68.30
60976;BME280;46849;48.154;17.042;2023-01-30T11:41:59;98431.00;;;3.40;69.32
60976;BME280;46849;48.154;17.042;2023-01-30T11:44:54;98428.63;;;3.36;69.60
60976;BME280;46849;48.154;17.042;2023-01-30T11:47:48;98429.91;;;3.06;71.73
60976;BME280;46849;48.154;17.042;2023-01-30T11:50:40;98420.47;;;3.05;71.55
60976;BME280;46849;48.154;17.042;2023-01-30T11:56:21;98406.56;;;2.87;73.27
60976;BME280;46849;48.154;17.042;2023-01-30T11:59:30;98414.44;;;3.04;72.80
60976;BME280;46849;48.154;17.042;2023-01-30T12:02:31;98401.28;;;3.09;72.19
60976;BME280;46849;48.154;17.042;2023-01-30T12:05:23;98406.69;;;3.24;71.98
60976;BME280;46849;48.154;17.042;2023-01-30T12:10:59;98400.56;;;3.05;72.82
60976;BME280;46849;48.154;17.042;2023-01-30T12:13:45;98400.78;;;3.01;72.00
60976;BME280;46849;48.154;17.042;2023-01-30T12:16:45;98384.91;;;3.08;72.07
60976;BME280;46849;48.154;17.042;2023-01-30T12:19:38;98390.50;;;2.99;71.79
60976;BME280;46849;48.154;17.042;2023-01-30T12:22:37;98387.91;;;2.99;71.39
60976;BME280;46849;48.154;17.042;2023-01-30T12:25:28;98380.66;;;3.07;71.87
60976;BME280;46849;48.154;17.042;2023-01-30T12:31:28;98374.31;;;3.15;70.71
60976;BME280;46849;48.154;17.042;2023-01-30T12:34:15;98367.50;;;3.12;70.33
60976;BME280;46849;48.154;17.042;2023-01-30T12:43:59;98349.78;;;3.03;70.80
60976;BME280;46849;48.154;17.042;2023-01-30T12:50:01;98342.38;;;2.95;70.31
60976;BME280;46849;48.154;17.042;2023-01-30T13:07:53;98353.16;;;2.84;72.15
60976;BME280;46849;48.154;17.042;2023-01-30T13:13:51;98315.69;;;2.74;73.73
60976;BME280;46849;48.154;17.042;2023-01-30T13:19:25;98324.66;;;2.65;75.50
60976;BME280;46849;48.154;17.042;2023-01-30T13:25:40;98339.31;;;2.66;76.23
60976;BME280;46849;48.154;17.042;2023-01-30T13:28:38;98347.50;;;2.55;77.19
60976;BME280;46849;48.154;17.042;2023-01-30T13:31:27;98358.38;;;2.63;77.22
60976;BME280;46849;48.154;17.042;2023-01-30T13:34:34;98355.03;;;2.61;77.84
60976;BME280;46849;48.154;17.042;2023-01-30T13:37:20;98345.91;;;2.52;79.03
60976;BME280;46849;48.154;17.042;2023-01-30T13:43:02;98325.91;;;2.35;82.15
60976;BME280;46849;48.154;17.042;2023-01-30T13:45:51;98341.88;;;2.24;83.99
60976;BME280;46849;48.154;17.042;2023-01-30T13:51:57;98316.22;;;2.19;85.17
60976;BME280;46849;48.154;17.042;2023-01-30T14:00:53;98321.44;;;2.18;85.91
60976;BME280;46849;48.154;17.042;2023-01-30T14:03:40;98330.41;;;2.09;86.92
60976;BME280;46849;48.154;17.042;2023-01-30T14:06:37;98339.78;;;2.12;88.06
60976;BME280;46849;48.154;17.042;2023-01-30T14:09:28;98329.47;;;1.89;90.70
60976;BME280;46849;48.154;17.042;2023-01-30T14:12:24;98318.53;;;2.05;90.79
60976;BME280;46849;48.154;17.042;2023-01-30T14:21:21;98323.25;;;1.72;96.37
60976;BME280;46849;48.154;17.042;2023-01-30T14:24:21;98317.72;;;1.59;97.46
60976;BME280;46849;48.154;17.042;2023-01-30T14:27:34;98324.78;;;1.54;98.17
60976;BME280;46849;48.154;17.042;2023-01-30T14:33:34;98334.09;;;1.58;98.67
60976;BME280;46849;48.154;17.042;2023-01-30T14:36:34;98325.69;;;1.53;98.71
60976;BME280;46849;48.154;17.042;2023-01-30T14:39:37;98343.34;;;1.42;99.46
60976;BME280;46849;48.154;17.042;2023-01-30T14:42:27;98333.31;;;1.56;99.40
60976;BME280;46849;48.154;17.042;2023-01-30T14:45:14;98346.47;;;1.50;99.67
60976;BME280;46849;48.154;17.042;2023-01-30T14:57:01;98349.63;;;1.57;100.00
60976;BME280;46849;48.154;17.042;2023-01-30T14:59:59;98354.72;;;1.36;100.00
60976;BME280;46849;48.154;17.042;2023-01-30T15:02:50;98348.50;;;1.42;100.00
60976;BME280;46849;48.154;17.042;2023-01-30T15:05:41;98357.25;;;1.38;100.00
60976;BME280;46849;48.154;17.042;2023-01-30T15:08:27;98353.69;;;1.64;100.00
60976;BME280;46849;48.154;17.042;2023-01-30T15:11:32;98353.56;;;1.67;100.00
60976;BME280;46849;48.154;17.042;2023-01-30T15:14:32;98353.06;;;1.57;100.00
60976;BME280;46849;48.154;17.042;2023-01-30T15:32:34;98367.03;;;1.76;100.00
60976;BME280;46849;48.154;17.042;2023-01-30T15:35:21;98372.31;;;1.72;100.00
60976;BME280;46849;48.154;17.042;2023-01-30T15:38:28;98366.06;;;1.78;100.00
60976;BME280;46849;48.154;17.042;2023-01-30T15:41:14;98367.72;;;2.24;100.00
60976;BME280;46849;48.154;17.042;2023-01-30T15:50:34;98369.97;;;1.89;100.00
60976;BME280;46849;48.154;17.042;2023-01-30T15:53:36;98365.53;;;1.92;100.00
60976;BME280;46849;48.154;17.042;2023-01-30T15:56:26;98371.53;;;2.15;100.00
60976;BME280;46849;48.154;17.042;2023-01-30T16:02:25;98377.22;;;2.01;100.00
60976;BME280;46849;48.154;17.042;2023-01-30T16:08:11;98383.19;;;2.03;100.00
60976;BME280;46849;48.154;17.042;2023-01-30T16:11:02;98391.13;;;2.42;100.00
60976;BME280;46849;48.154;17.042;2023-01-30T16:13:46;98389.72;;;2.55;100.00
60976;BME280;46849;48.154;17.042;2023-01-30T16:16:32;98386.66;;;2.25;100.00
60976;BME280;46849;48.154;17.042;2023-01-30T16:19:36;98401.13;;;2.29;100.00
60976;BME280;46849;48.154;17.042;2023-01-30T16:22:22;98407.84;;;2.12;100.00
60976;BME280;46849;48.154;17.042;2023-01-30T16:25:15;98405.66;;;2.01;98.82
60976;BME280;46849;48.154;17.042;2023-01-30T16:28:02;98401.41;;;2.00;99.29
60976;BME280;46849;48.154;17.042;2023-01-30T16:30:46;98398.34;;;1.90;100.00
60976;BME280;46849;48.154;17.042;2023-01-30T16:33:32;98391.72;;;1.83;100.00
60976;BME280;46849;48.154;17.042;2023-01-30T16:42:24;98393.28;;;2.09;100.00
60976;BME280;46849;48.154;17.042;2023-01-30T16:51:16;98390.38;;;1.50;99.94
60976;BME280;46849;48.154;17.042;2023-01-30T16:54:03;98400.25;;;1.39;100.00
60976;BME280;46849;48.154;17.042;2023-01-30T16:56:51;98397.44;;;1.45;100.00
60976;BME280;46849;48.154;17.042;2023-01-30T16:59:37;98409.00;;;1.34;100.00
60976;BME280;46849;48.154;17.042;2023-01-30T17:02:38;98405.31;;;1.42;100.00
60976;BME280;46849;48.154;17.042;2023-01-30T17:05:36;98403.03;;;1.32;100.00
60976;BME280;46849;48.154;17.042;2023-01-30T17:11:39;98416.41;;;1.20;100.00
60976;BME280;46849;48.154;17.042;2023-01-30T17:14:28;98416.16;;;1.26;100.00
60976;BME280;46849;48.154;17.042;2023-01-30T17:17:16;98424.53;;;1.33;100.00
60976;BME280;46849;48.154;17.042;2023-01-30T17:20:02;98423.56;;;1.35;100.00
60976;BME280;46849;48.154;17.042;2023-01-30T17:22:49;98419.72;;;1.47;99.68
60976;BME280;46849;48.154;17.042;2023-01-30T17:25:43;98414.25;;;1.55;99.27
60976;BME280;46849;48.154;17.042;2023-01-30T17:28:28;98438.31;;;1.80;100.00
60976;BME280;46849;48.154;17.042;2023-01-30T17:31:14;98416.06;;;1.77;99.25
60976;BME280;46849;48.154;17.042;2023-01-30T17:33:59;98425.34;;;1.81;99.82
60976;BME280;46849;48.154;17.042;2023-01-30T17:36:45;98433.22;;;1.78;99.10
60976;BME280;46849;48.154;17.042;2023-01-30T17:39:30;98436.03;;;1.72;99.18
60976;BME280;46849;48.154;17.042;2023-01-30T17:42:15;98435.13;;;1.73;100.00
60976;BME280;46849;48.154;17.042;2023-01-30T17:45:05;98449.81;;;1.72;100.00
60976;BME280;46849;48.154;17.042;2023-01-30T17:47:49;98451.81;;;1.64;100.00
60976;BME280;46849;48.154;17.042;2023-01-30T17:50:34;98451.94;;;1.61;100.00